Time;durP1;ratioP1;P1;durP2;ratioP2;P2;SDS_P1;SDS_P2;PMS_P1;PMS_P2;Temp;Humidity;BMP_temperature;BMP_pressure;BME280_temperature;BME280_humidity;BME280_pressure;Samples;Min_cycle;Max_cycle;Signal;HPM_P1;HPM_P2
2022/09/03 00:01:59;;;;;;;2.50;1.67;;;14.80;59.10;;;;;;5013698;28;20444;-56
2022/09/03 00:04:35;;;;;;;2.50;1.67;;;14.80;59.20;;;;;;5013198;28;20533;-56
2022/09/03 00:07:08;;;;;;;2.53;1.80;;;14.80;59.40;;;;;;5013478;28;20517;-56
2022/09/03 00:09:42;;;;;;;5.03;1.97;;;14.80;59.60;;;;;;5013000;28;20484;-56
2022/09/03 00:12:14;;;;;;;4.23;2.10;;;14.70;59.80;;;;;;5013517;28;20529;-56
2022/09/03 00:14:49;;;;;;;2.60;1.70;;;14.70;59.90;;;;;;5013544;28;20549;-56
2022/09/03 00:17:18;;;;;;;3.77;2.00;;;14.70;60.10;;;;;;5013481;28;20537;-56
2022/09/03 00:19:53;;;;;;;2.47;2.10;;;14.60;60.20;;;;;;5013108;28;20509;-56
2022/09/03 00:22:24;;;;;;;2.30;1.87;;;14.60;60.50;;;;;;5013284;28;20568;-56
2022/09/03 00:24:53;;;;;;;2.17;1.70;;;14.60;60.80;;;;;;5013473;28;20431;-55
2022/09/03 00:27:23;;;;;;;3.20;1.97;;;14.60;61.10;;;;;;5017211;28;20537;-56
2022/09/03 00:29:57;;;;;;;3.80;1.70;;;14.50;61.10;;;;;;5016896;28;20473;-56
2022/09/03 00:32:29;;;;;;;3.33;1.90;;;14.50;61.40;;;;;;5017171;28;20522;-56
2022/09/03 00:35:01;;;;;;;3.97;1.80;;;14.50;61.60;;;;;;5016873;28;20466;-56
2022/09/03 00:37:28;;;;;;;2.20;2.00;;;14.50;61.70;;;;;;5016830;28;20523;-56
2022/09/03 00:39:56;;;;;;;2.47;1.60;;;14.40;61.90;;;;;;5017045;28;20543;-56
2022/09/03 00:42:43;;;;;;;2.33;1.60;;;14.40;62.20;;;;;;5017060;28;20878;-56
2022/09/03 00:45:22;;;;;;;3.17;1.90;;;14.40;62.40;;;;;;5017515;28;20808;-56
2022/09/03 00:48:03;;;;;;;2.80;1.80;;;14.40;62.50;;;;;;5017086;28;20461;-56
2022/09/03 00:50:44;;;;;;;3.93;2.07;;;14.40;62.80;;;;;;5016643;28;20466;-56
2022/09/03 00:53:17;;;;;;;3.83;1.63;;;14.40;62.90;;;;;;5016653;28;20524;-56
2022/09/03 00:55:57;;;;;;;2.00;1.73;;;14.30;63.00;;;;;;5016667;28;20560;-56
2022/09/03 00:58:50;;;;;;;2.00;1.80;;;14.40;63.20;;;;;;5016681;28;20903;-56
2022/09/03 01:01:22;;;;;;;2.10;1.63;;;14.40;63.30;;;;;;5016598;28;20438;-56
2022/09/03 01:04:06;;;;;;;1.30;1.20;;;14.40;63.40;;;;;;5016925;28;20435;-56
2022/09/03 01:06:42;;;;;;;3.63;1.77;;;14.40;63.40;;;;;;5016662;28;20481;-56
2022/09/03 01:09:23;;;;;;;2.23;1.43;;;14.40;63.30;;;;;;5042216;22;20580;-60
2022/09/03 01:11:59;;;;;;;2.60;1.40;;;14.40;63.20;;;;;;5016552;28;20489;-59
2022/09/03 01:14:39;;;;;;;2.60;1.83;;;14.40;63.30;;;;;;5017009;28;20468;-60
2022/09/03 01:17:24;;;;;;;1.70;1.60;;;14.50;63.30;;;;;;5016944;28;20816;-60
2022/09/03 01:20:09;;;;;;;1.40;1.30;;;14.50;63.10;;;;;;5016677;28;20472;-59
2022/09/03 01:23:03;;;;;;;2.90;1.87;;;14.50;63.10;;;;;;5016655;28;20438;-59
2022/09/03 01:25:46;;;;;;;1.80;1.60;;;14.50;63.10;;;;;;5016804;28;20427;-59
2022/09/03 01:28:31;;;;;;;2.17;1.17;;;14.50;63.20;;;;;;5016965;28;20466;-59
2022/09/03 01:31:10;;;;;;;1.47;1.30;;;14.50;63.20;;;;;;5016522;28;20505;-60
2022/09/03 01:33:45;;;;;;;1.70;1.60;;;14.40;63.30;;;;;;5016290;28;20438;-60
2022/09/03 01:36:22;;;;;;;2.97;1.30;;;14.40;64.10;;;;;;5016614;28;20472;-60
2022/09/03 01:38:53;;;;;;;2.10;1.60;;;14.40;63.50;;;;;;5015945;28;20980;-60
2022/09/03 01:44:39;;;;;;;2.83;1.40;;;14.30;63.70;;;;;;4994742;28;20423;-60
2022/09/03 01:47:15;;;;;;;1.80;1.60;;;14.30;64.10;;;;;;5012696;28;20811;-60
2022/09/03 01:49:50;;;;;;;2.30;1.63;;;14.20;64.10;;;;;;5016330;28;20548;-61
2022/09/03 01:52:25;;;;;;;1.40;1.30;;;14.20;64.40;;;;;;5015807;28;20505;-60
2022/09/03 01:55:01;;;;;;;2.73;1.67;;;14.20;64.40;;;;;;5015849;28;20972;-60
2022/09/03 01:57:41;;;;;;;2.07;1.60;;;14.20;64.50;;;;;;5015881;28;20438;-60
2022/09/03 02:00:12;;;;;;;2.83;2.00;;;14.20;64.60;;;;;;5015796;28;20569;-60
2022/09/03 02:02:42;;;;;;;4.90;1.57;;;14.10;64.60;;;;;;5015814;28;20438;-59
2022/09/03 02:05:11;;;;;;;2.10;1.63;;;14.10;64.80;;;;;;5015749;28;20999;-60
2022/09/03 02:07:42;;;;;;;1.87;1.50;;;14.10;64.80;;;;;;5015929;28;20524;-61
2022/09/03 02:10:12;;;;;;;1.70;1.50;;;14.10;65.00;;;;;;5015756;28;20564;-60
2022/09/03 02:12:42;;;;;;;3.90;1.70;;;14.10;65.00;;;;;;5015755;28;20556;-60
2022/09/03 02:15:14;;;;;;;3.17;1.57;;;14.10;65.00;;;;;;5015902;28;20485;-60
2022/09/03 02:17:44;;;;;;;2.33;1.77;;;14.10;65.20;;;;;;5016013;28;20481;-59
2022/09/03 02:20:18;;;;;;;3.43;1.33;;;14.10;65.20;;;;;;5016197;28;20588;-59
2022/09/03 02:22:46;;;;;;;2.20;1.60;;;14.10;65.20;;;;;;5017504;28;20470;-60
2022/09/03 02:25:14;;;;;;;2.47;1.60;;;14.10;65.30;;;;;;5016334;28;20446;-60
2022/09/03 02:27:41;;;;;;;4.10;1.60;;;14.10;65.50;;;;;;5015771;28;20450;-60
2022/09/03 02:30:11;;;;;;;1.73;1.57;;;14.00;65.40;;;;;;5016005;28;20470;-60
2022/09/03 02:32:39;;;;;;;1.80;1.30;;;14.00;65.50;;;;;;5016347;28;20537;-60
2022/09/03 02:35:07;;;;;;;3.87;1.40;;;14.00;65.80;;;;;;5015450;28;20486;-60
2022/09/03 02:37:34;;;;;;;7.47;1.60;;;14.00;65.90;;;;;;5015538;28;20481;-61
2022/09/03 02:40:04;;;;;;;2.00;1.47;;;14.00;65.80;;;;;;5015588;28;20569;-60
2022/09/03 02:42:32;;;;;;;2.10;1.30;;;14.00;65.90;;;;;;5015233;28;20466;-60
2022/09/03 02:45:07;;;;;;;1.90;1.37;;;14.00;65.90;;;;;;5015432;28;20850;-60
2022/09/03 02:47:38;;;;;;;1.60;1.40;;;14.00;66.00;;;;;;5015474;28;20854;-59
2022/09/03 02:50:06;;;;;;;2.20;1.47;;;13.90;65.90;;;;;;5013867;28;20469;-59
2022/09/03 02:52:33;;;;;;;1.53;1.40;;;13.90;66.00;;;;;;5014904;28;20446;-59
2022/09/03 02:55:01;;;;;;;1.80;1.40;;;13.90;66.10;;;;;;5014405;28;21038;-60
2022/09/03 02:57:28;;;;;;;2.13;1.10;;;13.90;66.30;;;;;;5014495;28;20792;-60
2022/09/03 02:59:55;;;;;;;2.60;1.17;;;13.90;66.50;;;;;;5014360;28;20462;-60
2022/09/03 03:02:22;;;;;;;2.23;1.57;;;13.90;66.70;;;;;;5014799;28;20552;-60
2022/09/03 03:04:51;;;;;;;3.87;1.40;;;13.90;66.60;;;;;;5014440;28;21012;-60
2022/09/03 03:07:18;;;;;;;1.80;1.40;;;13.90;66.70;;;;;;5014695;28;20536;-60
2022/09/03 03:09:45;;;;;;;1.80;1.27;;;13.80;66.70;;;;;;5014003;28;20513;-60
2022/09/03 03:12:12;;;;;;;2.93;1.40;;;13.90;67.00;;;;;;5014476;28;20449;-60
2022/09/03 03:14:40;;;;;;;2.07;1.23;;;13.80;66.90;;;;;;5014283;28;20504;-60
2022/09/03 03:17:07;;;;;;;2.60;1.20;;;13.80;67.00;;;;;;5014307;28;20572;-60
2022/09/03 03:19:34;;;;;;;2.50;1.30;;;13.80;67.10;;;;;;5014298;28;20909;-60
2022/09/03 03:22:03;;;;;;;2.43;1.73;;;13.80;67.20;;;;;;5013995;28;20964;-59
2022/09/03 03:24:30;;;;;;;1.83;1.40;;;13.80;67.30;;;;;;5014252;28;20528;-60
2022/09/03 03:26:58;;;;;;;2.30;1.40;;;13.80;67.40;;;;;;5013886;28;20521;-60
2022/09/03 03:29:25;;;;;;;2.43;1.60;;;13.80;67.40;;;;;;5013742;28;20505;-59
2022/09/03 03:31:53;;;;;;;3.03;1.47;;;13.80;67.50;;;;;;5013926;28;20536;-60
2022/09/03 03:34:20;;;;;;;1.50;1.40;;;13.80;67.70;;;;;;5014124;28;20856;-60
2022/09/03 03:36:47;;;;;;;3.33;1.67;;;13.80;67.70;;;;;;5014057;28;20564;-60
2022/09/03 03:39:16;;;;;;;4.43;1.27;;;13.80;67.70;;;;;;5013688;28;20553;-60
2022/09/03 03:41:44;;;;;;;1.90;1.30;;;13.80;67.80;;;;;;5014005;28;20540;-60
2022/09/03 03:44:11;;;;;;;2.30;1.47;;;13.80;68.00;;;;;;5013687;28;20544;-60
2022/09/03 03:46:40;;;;;;;1.67;1.20;;;13.80;68.00;;;;;;5013682;28;21008;-60
2022/09/03 03:49:09;;;;;;;1.67;1.57;;;13.70;68.10;;;;;;5014073;28;20990;-61
2022/09/03 03:51:38;;;;;;;1.20;1.10;;;13.70;68.30;;;;;;5014372;28;20938;-60
2022/09/03 03:54:06;;;;;;;1.63;1.53;;;13.70;68.50;;;;;;5014026;28;20481;-60
2022/09/03 03:56:35;;;;;;;4.23;1.43;;;13.70;68.50;;;;;;5013919;28;20560;-59
2022/09/03 03:59:02;;;;;;;1.93;1.33;;;13.70;68.70;;;;;;5014278;28;20812;-59
2022/09/03 04:01:30;;;;;;;1.87;1.17;;;13.70;68.80;;;;;;5013383;28;20438;-60
2022/09/03 04:03:59;;;;;;;2.20;1.20;;;13.70;68.80;;;;;;5013898;28;20457;-59
2022/09/03 04:06:27;;;;;;;1.40;1.20;;;13.60;68.90;;;;;;5013944;28;20536;-60
2022/09/03 04:10:12;;;;;;;1.77;1.33;;;13.60;68.70;;;;;;5114769;27;21111;-60
2022/09/03 04:12:39;;;;;;;1.80;1.40;;;13.60;69.20;;;;;;5113560;28;20450;-60
2022/09/03 04:15:08;;;;;;;2.23;1.80;;;13.50;69.30;;;;;;5114822;28;20474;-60
2022/09/03 04:17:35;;;;;;;1.60;1.50;;;13.50;69.50;;;;;;5113052;28;20453;-59
2022/09/03 04:20:03;;;;;;;2.07;1.20;;;13.50;69.70;;;;;;5112278;28;20472;-60
2022/09/03 04:22:32;;;;;;;1.67;1.50;;;13.50;70.10;;;;;;5112240;28;20437;-60
2022/09/03 04:24:59;;;;;;;1.40;1.23;;;13.40;70.10;;;;;;5113350;28;20471;-60
2022/09/03 04:27:28;;;;;;;4.60;1.50;;;13.40;70.30;;;;;;5114185;28;20511;-60
2022/09/03 04:29:55;;;;;;;3.93;1.50;;;13.40;70.40;;;;;;5111379;28;20485;-60
2022/09/03 04:35:08;;;;;;;2.37;1.47;;;13.30;70.90;;;;;;5110871;28;20483;-61
2022/09/03 04:37:35;;;;;;;1.83;1.33;;;13.30;71.10;;;;;;5112270;28;20495;-59
2022/09/03 04:40:03;;;;;;;2.17;1.40;;;13.30;71.50;;;;;;5113121;28;20493;-59
2022/09/03 04:42:32;;;;;;;2.20;1.43;;;13.20;71.50;;;;;;5111038;28;20486;-60
2022/09/03 04:45:00;;;;;;;1.40;1.23;;;13.20;71.70;;;;;;5110718;28;20449;-60
2022/09/03 04:47:27;;;;;;;2.73;1.50;;;13.20;72.00;;;;;;5110325;28;20442;-61
2022/09/03 04:49:54;;;;;;;2.17;1.37;;;13.20;72.30;;;;;;5111357;28;20594;-59
2022/09/03 04:52:22;;;;;;;2.10;1.60;;;13.20;72.70;;;;;;5112561;28;20484;-60
2022/09/03 04:54:49;;;;;;;1.80;1.43;;;13.20;72.80;;;;;;5112982;28;20929;-59
2022/09/03 04:57:16;;;;;;;2.40;1.47;;;13.30;72.80;;;;;;5112337;28;20445;-61
2022/09/03 04:59:44;;;;;;;1.77;1.33;;;13.40;72.60;;;;;;5112536;28;20600;-60
2022/09/03 05:02:13;;;;;;;1.90;1.80;;;13.50;72.50;;;;;;5112096;28;20438;-61
2022/09/03 05:04:41;;;;;;;2.23;1.60;;;13.60;72.40;;;;;;5111752;28;20856;-60
2022/09/03 05:07:08;;;;;;;3.67;1.43;;;13.70;72.30;;;;;;5110877;28;20465;-60
2022/09/03 05:09:35;;;;;;;2.80;1.60;;;13.80;72.00;;;;;;5109814;28;20489;-61
2022/09/03 05:12:03;;;;;;;2.00;1.60;;;13.80;71.80;;;;;;5109789;28;20679;-61
2022/09/03 05:14:30;;;;;;;2.60;1.53;;;13.90;71.80;;;;;;5110048;28;20533;-60
2022/09/03 05:16:59;;;;;;;2.83;1.33;;;13.90;71.60;;;;;;5109566;28;20506;-60
2022/09/03 05:19:26;;;;;;;1.70;1.40;;;13.90;71.40;;;;;;5108000;28;20548;-61
2022/09/03 05:21:54;;;;;;;2.33;1.43;;;14.00;71.40;;;;;;5095874;28;20477;-61
2022/09/03 05:24:21;;;;;;;4.23;1.30;;;14.00;71.10;;;;;;5096780;28;20495;-60
2022/09/03 05:26:49;;;;;;;2.53;1.70;;;13.90;70.80;;;;;;5096808;28;20447;-60
2022/09/03 05:29:18;;;;;;;3.00;1.37;;;13.80;70.70;;;;;;5097669;28;20482;-61
2022/09/03 05:31:46;;;;;;;1.90;1.30;;;13.80;70.80;;;;;;5097971;28;20546;-60
2022/09/03 05:34:15;;;;;;;2.43;1.47;;;13.80;70.80;;;;;;5097366;28;20994;-60
2022/09/03 05:36:44;;;;;;;4.63;1.50;;;13.80;70.80;;;;;;5096341;28;20442;-60
2022/09/03 05:39:11;;;;;;;1.87;1.40;;;13.80;70.80;;;;;;5095742;28;20478;-60
2022/09/03 05:41:39;;;;;;;2.90;1.63;;;13.80;71.50;;;;;;5095574;28;20859;-60
2022/09/03 05:44:06;;;;;;;4.50;1.43;;;13.80;70.70;;;;;;5095916;28;20555;-59
2022/09/03 05:46:36;;;;;;;1.63;1.20;;;13.80;70.60;;;;;;5096840;28;21053;-60
2022/09/03 05:49:05;;;;;;;3.10;1.20;;;13.90;70.60;;;;;;5096065;28;20510;-60
2022/09/03 05:51:35;;;;;;;2.80;1.50;;;13.90;70.40;;;;;;5095839;28;20533;-61
2022/09/03 05:54:02;;;;;;;2.00;1.50;;;14.00;70.40;;;;;;5095750;28;20514;-60
2022/09/03 05:56:34;;;;;;;7.00;1.60;;;14.00;70.20;;;;;;5095733;28;20481;-60
2022/09/03 05:59:04;;;;;;;2.07;1.47;;;14.10;70.10;;;;;;5095923;28;20458;-60
2022/09/03 06:01:33;;;;;;;3.37;1.50;;;14.10;69.90;;;;;;5096083;28;20477;-60
2022/09/03 06:04:02;;;;;;;1.57;1.20;;;14.20;69.70;;;;;;5095941;28;20452;-61
2022/09/03 06:06:32;;;;;;;2.60;2.07;;;14.20;69.40;;;;;;5095442;28;20585;-60
2022/09/03 06:09:02;;;;;;;1.70;1.23;;;14.30;69.30;;;;;;5095385;28;20488;-60
2022/09/03 06:11:30;;;;;;;1.60;1.50;;;14.30;69.10;;;;;;5095482;28;20478;-60
2022/09/03 06:14:00;;;;;;;3.53;1.97;;;14.40;69.10;;;;;;5096259;28;20957;-61
2022/09/03 06:16:28;;;;;;;3.00;1.40;;;14.40;68.80;;;;;;5096696;28;20461;-61
2022/09/03 06:18:55;;;;;;;2.87;2.10;;;14.40;68.60;;;;;;5095732;28;20533;-61
2022/09/03 06:21:22;;;;;;;1.60;1.33;;;14.50;68.50;;;;;;5090810;28;20470;-61
2022/09/03 06:23:51;;;;;;;2.60;1.50;;;14.50;68.30;;;;;;5094122;28;20449;-59
2022/09/03 06:26:20;;;;;;;2.23;1.30;;;14.60;68.20;;;;;;5095480;28;20442;-61
2022/09/03 06:28:48;;;;;;;2.17;1.77;;;14.70;68.00;;;;;;5095867;28;20466;-60
2022/09/03 06:31:17;;;;;;;2.50;1.70;;;14.80;67.90;;;;;;5089604;28;20557;-60
2022/09/03 06:33:46;;;;;;;1.87;1.60;;;14.80;67.60;;;;;;5074014;28;20466;-61
2022/09/03 06:36:14;;;;;;;2.40;1.60;;;14.90;67.50;;;;;;5074852;28;20447;-60
2022/09/03 06:38:43;;;;;;;2.00;1.60;;;15.00;67.20;;;;;;5076159;28;20933;-61
2022/09/03 06:41:12;;;;;;;3.50;1.73;;;15.10;67.00;;;;;;5085738;28;20473;-60
2022/09/03 06:43:42;;;;;;;3.23;1.30;;;15.20;66.80;;;;;;5074852;28;20516;-59
2022/09/03 06:46:12;;;;;;;2.67;1.67;;;15.20;66.50;;;;;;5086871;28;20970;-59
2022/09/03 06:48:41;;;;;;;1.90;1.70;;;15.30;66.20;;;;;;5083147;28;20530;-61
2022/09/03 06:51:09;;;;;;;3.87;1.57;;;15.30;66.10;;;;;;5094168;28;20466;-60
2022/09/03 06:53:39;;;;;;;2.10;1.53;;;15.40;65.90;;;;;;5094679;28;20446;-60
2022/09/03 06:56:08;;;;;;;4.43;1.77;;;15.50;65.60;;;;;;5094142;28;20477;-61
2022/09/03 06:58:37;;;;;;;2.97;1.60;;;15.60;65.40;;;;;;5094391;28;20545;-60
2022/09/03 07:01:09;;;;;;;2.87;1.93;;;15.70;65.00;;;;;;5089849;28;20579;-61
2022/09/03 07:03:37;;;;;;;1.90;1.60;;;15.70;64.90;;;;;;5094094;28;20446;-60
2022/09/03 07:06:07;;;;;;;3.10;1.83;;;15.80;64.70;;;;;;5083875;28;20456;-60
2022/09/03 07:08:35;;;;;;;2.07;1.63;;;15.90;64.50;;;;;;5085261;28;20554;-59
2022/09/03 07:11:08;;;;;;;2.47;1.60;;;16.00;64.20;;;;;;5075790;28;20566;-59
2022/09/03 07:13:36;;;;;;;3.53;1.50;;;16.10;63.90;;;;;;5091285;28;20994;-61
2022/09/03 07:16:06;;;;;;;2.77;2.07;;;16.20;63.50;;;;;;5080515;28;20846;-60
2022/09/03 07:18:34;;;;;;;3.00;1.50;;;16.30;63.20;;;;;;5078738;28;20447;-60
2022/09/03 07:21:03;;;;;;;2.57;1.73;;;16.40;62.70;;;;;;5090288;28;21024;-61
2022/09/03 07:23:31;;;;;;;3.13;1.50;;;16.50;62.40;;;;;;5093898;28;20474;-61
2022/09/03 07:26:01;;;;;;;2.10;1.83;;;16.60;62.10;;;;;;5093437;28;20446;-61
2022/09/03 07:28:30;;;;;;;2.40;1.60;;;16.70;61.70;;;;;;5095345;28;20785;-60
2022/09/03 07:31:07;;;;;;;2.87;1.50;;;16.80;61.50;;;;;;5094923;28;20486;-60
2022/09/03 07:33:35;;;;;;;2.00;1.50;;;16.90;61.20;;;;;;5080020;28;20530;-60
2022/09/03 07:36:05;;;;;;;3.53;1.73;;;16.90;60.80;;;;;;5074379;28;20501;-61
2022/09/03 07:38:32;;;;;;;3.10;1.90;;;17.00;60.40;;;;;;5074437;28;20529;-61
2022/09/03 07:41:00;;;;;;;3.50;1.60;;;17.10;60.20;;;;;;5074073;28;20462;-60
2022/09/03 07:43:27;;;;;;;3.07;1.77;;;17.20;59.80;;;;;;5073013;28;20955;-60
2022/09/03 07:45:55;;;;;;;2.57;1.40;;;17.30;59.60;;;;;;5073331;28;20500;-61
2022/09/03 07:48:25;;;;;;;1.90;1.60;;;17.40;60.00;;;;;;5073590;28;20869;-60
2022/09/03 07:50:53;;;;;;;2.50;1.53;;;17.50;59.20;;;;;;5073853;28;20976;-61
2022/09/03 07:53:20;;;;;;;4.47;1.70;;;17.70;59.00;;;;;;5074454;28;20450;-61
2022/09/03 07:55:48;;;;;;;1.80;1.47;;;17.80;58.60;;;;;;5093078;28;20529;-60
2022/09/03 07:58:16;;;;;;;4.37;2.03;;;17.90;58.20;;;;;;5094195;28;20454;-61
2022/09/03 08:00:44;;;;;;;6.20;1.70;;;18.10;58.10;;;;;;5094348;28;21035;-58
2022/09/03 08:03:11;;;;;;;3.30;1.90;;;18.30;57.50;;;;;;5093558;28;20497;-61
2022/09/03 08:05:40;;;;;;;2.80;1.30;;;18.30;56.90;;;;;;5093616;28;20444;-61
2022/09/03 08:08:07;;;;;;;1.67;1.43;;;18.40;56.70;;;;;;5095169;28;20460;-60
2022/09/03 08:10:37;;;;;;;2.40;1.50;;;18.40;56.40;;;;;;5076760;28;20517;-60
2022/09/03 08:13:04;;;;;;;2.40;1.60;;;18.50;56.90;;;;;;5075573;28;20470;-62
2022/09/03 08:15:33;;;;;;;2.90;1.50;;;18.50;56.10;;;;;;5089767;28;20446;-59
2022/09/03 08:18:00;;;;;;;2.33;1.57;;;18.60;56.00;;;;;;5093773;28;20447;-61
2022/09/03 08:20:36;;;;;;;3.00;1.40;;;18.60;55.90;;;;;;5094420;28;20549;-62
2022/09/03 08:23:05;;;;;;;4.97;2.20;;;18.60;55.70;;;;;;5094884;28;20537;-61
2022/09/03 08:25:32;;;;;;;2.20;1.40;;;18.70;55.70;;;;;;5093941;28;20527;-60
2022/09/03 08:28:00;;;;;;;4.33;1.50;;;18.80;55.50;;;;;;5091692;28;20493;-60
2022/09/03 08:30:28;;;;;;;2.10;1.70;;;18.90;54.90;;;;;;5094274;28;20497;-60
2022/09/03 08:32:55;;;;;;;3.47;2.23;;;19.10;54.60;;;;;;5085225;28;20447;-62
2022/09/03 08:35:23;;;;;;;4.57;2.00;;;19.30;54.20;;;;;;5073445;28;20447;-60
2022/09/03 08:37:52;;;;;;;2.53;1.70;;;19.40;53.60;;;;;;5073347;28;20443;-60
2022/09/03 08:40:23;;;;;;;2.60;1.60;;;19.50;53.20;;;;;;5073531;28;20468;-62
2022/09/03 08:43:05;;;;;;;1.83;1.57;;;19.70;52.90;;;;;;5074789;28;20432;-60
2022/09/03 08:45:37;;;;;;;4.00;1.50;;;19.90;52.50;;;;;;5073391;28;20435;-61
2022/09/03 08:48:08;;;;;;;3.73;1.83;;;20.20;52.10;;;;;;5074080;28;20459;-61
2022/09/03 08:50:40;;;;;;;4.50;1.90;;;20.40;51.30;;;;;;5090698;28;20999;-60
2022/09/03 08:53:14;;;;;;;5.33;1.80;;;20.50;50.90;;;;;;5095034;28;20538;-62
2022/09/03 08:55:50;;;;;;;2.10;1.70;;;20.70;50.50;;;;;;5097844;28;20470;-61
2022/09/03 08:58:19;;;;;;;3.30;2.10;;;20.80;49.90;;;;;;5094056;28;20440;-62
2022/09/03 09:01:00;;;;;;;2.80;2.13;;;21.00;49.60;;;;;;5105401;28;20479;-58
2022/09/03 09:03:51;;;;;;;4.43;1.70;;;21.20;49.10;;;;;;5097529;28;20449;-61
2022/09/03 09:06:24;;;;;;;2.67;2.07;;;21.30;48.30;;;;;;5092524;28;20449;-59
2022/09/03 09:09:03;;;;;;;1.77;1.63;;;21.40;47.90;;;;;;5081429;28;20964;-60
2022/09/03 09:11:41;;;;;;;2.63;1.67;;;21.50;47.30;;;;;;5093720;28;20571;-59
2022/09/03 09:14:19;;;;;;;1.90;1.27;;;21.50;47.00;;;;;;5098571;28;20518;-59
2022/09/03 09:16:54;;;;;;;5.20;1.43;;;21.50;46.70;;;;;;5098486;28;20504;-60
2022/09/03 09:19:41;;;;;;;6.03;1.70;;;21.60;46.50;;;;;;5097132;28;20445;-60
2022/09/03 09:22:11;;;;;;;1.67;1.57;;;21.70;46.10;;;;;;5093637;28;20429;-60
2022/09/03 09:24:42;;;;;;;3.23;2.23;;;21.90;45.70;;;;;;5077621;28;20489;-61
2022/09/03 09:27:16;;;;;;;4.30;1.90;;;22.00;45.30;;;;;;5076898;28;20485;-61
2022/09/03 09:29:46;;;;;;;6.10;1.63;;;22.10;44.90;;;;;;5077059;28;20999;-60
2022/09/03 09:32:17;;;;;;;2.40;1.43;;;22.20;44.70;;;;;;5081272;28;20450;-59
2022/09/03 09:34:44;;;;;;;3.30;1.73;;;22.30;44.30;;;;;;5093101;28;20807;-60
2022/09/03 09:37:14;;;;;;;4.13;1.43;;;22.40;43.90;;;;;;5092772;28;20482;-60
2022/09/03 09:39:55;;;;;;;1.97;1.27;;;22.60;43.60;;;;;;5077849;28;20509;-60
2022/09/03 09:42:24;;;;;;;2.20;1.73;;;22.80;43.30;;;;;;5084661;28;20469;-60
2022/09/03 09:44:51;;;;;;;5.33;1.40;;;22.90;43.00;;;;;;5084412;28;20573;-60
2022/09/03 09:47:25;;;;;;;7.37;1.80;;;23.00;42.50;;;;;;5091846;28;20450;-60
2022/09/03 09:49:54;;;;;;;6.80;1.90;;;23.10;42.10;;;;;;5076168;28;20530;-60
2022/09/03 09:52:24;;;;;;;2.83;1.50;;;23.00;41.60;;;;;;5077784;28;20867;-60
2022/09/03 09:54:53;;;;;;;1.50;1.40;;;23.00;41.20;;;;;;5096281;28;20803;-60
2022/09/03 09:57:25;;;;;;;1.43;1.33;;;23.00;41.20;;;;;;5087805;28;20454;-60
2022/09/03 10:00:07;;;;;;;2.37;1.60;;;23.00;41.00;;;;;;5076541;28;20557;-59
2022/09/03 10:02:39;;;;;;;3.20;1.30;;;23.10;40.80;;;;;;5076117;28;20508;-60
2022/09/03 10:05:15;;;;;;;3.20;1.37;;;23.20;40.50;;;;;;5078317;28;20451;-61
2022/09/03 10:07:42;;;;;;;5.60;1.63;;;23.20;40.10;;;;;;5097961;28;20425;-61
2022/09/03 10:10:18;;;;;;;2.60;1.60;;;23.10;39.80;;;;;;5101685;28;20513;-61
2022/09/03 10:12:50;;;;;;;5.40;1.40;;;23.10;39.80;;;;;;5102377;28;20473;-61
2022/09/03 10:15:25;;;;;;;2.43;1.50;;;23.10;39.60;;;;;;5095568;28;20517;-59
2022/09/03 10:18:00;;;;;;;2.17;1.53;;;23.10;39.40;;;;;;5095076;28;21013;-62
2022/09/03 10:20:36;;;;;;;2.47;1.47;;;23.20;39.10;;;;;;5094892;28;20549;-60
2022/09/03 10:23:11;;;;;;;5.40;1.80;;;23.10;38.90;;;;;;5083619;28;20446;-61
2022/09/03 10:25:49;;;;;;;5.00;1.50;;;23.00;38.90;;;;;;5086955;28;20438;-60
2022/09/03 10:28:18;;;;;;;3.00;1.43;;;23.00;38.90;;;;;;5094272;28;20536;-61
2022/09/03 10:31:10;;;;;;;1.77;1.60;;;23.00;38.90;;;;;;5075905;28;20563;-59
2022/09/03 10:33:43;;;;;;;1.60;1.47;;;23.10;38.90;;;;;;5076890;28;20468;-61
2022/09/03 10:36:18;;;;;;;5.10;1.60;;;23.20;38.70;;;;;;5081150;28;20443;-60
2022/09/03 10:38:52;;;;;;;2.17;1.47;;;23.30;38.60;;;;;;5078392;28;20469;-61
2022/09/03 10:41:33;;;;;;;2.83;1.10;;;23.30;38.50;;;;;;5092157;28;20461;-60
2022/09/03 10:44:25;;;;;;;2.70;1.23;;;23.40;38.40;;;;;;5092933;28;20537;-60
2022/09/03 10:47:03;;;;;;;4.93;1.70;;;23.30;38.10;;;;;;5094331;28;20450;-60
2022/09/03 10:49:44;;;;;;;3.63;2.30;;;23.30;38.30;;;;;;5094014;28;20564;-60
2022/09/03 10:52:23;;;;;;;3.47;1.70;;;23.40;38.40;;;;;;5093816;28;20541;-61
2022/09/03 10:55:02;;;;;;;2.13;1.57;;;23.60;38.20;;;;;;5075081;28;20527;-61
2022/09/03 10:57:38;;;;;;;2.53;1.90;;;23.60;37.80;;;;;;5076622;28;20448;-60
2022/09/03 11:00:11;;;;;;;2.73;1.47;;;23.60;37.90;;;;;;5074212;28;20572;-60
2022/09/03 11:03:11;;;;;;;5.90;1.27;;;23.70;37.90;;;;;;5078298;28;20435;-61
2022/09/03 11:05:44;;;;;;;3.00;1.50;;;23.80;37.90;;;;;;5092661;28;20441;-61
2022/09/03 11:08:16;;;;;;;2.30;1.50;;;23.80;37.70;;;;;;5094103;28;20503;-60
2022/09/03 11:10:48;;;;;;;2.60;1.70;;;23.80;37.70;;;;;;5077278;28;20490;-59
2022/09/03 11:13:22;;;;;;;4.70;1.70;;;23.80;37.80;;;;;;5094904;28;20448;-60
2022/09/03 11:15:54;;;;;;;3.03;1.33;;;23.90;37.80;;;;;;5094821;28;20469;-61
2022/09/03 11:18:26;;;;;;;2.73;1.40;;;23.90;37.60;;;;;;5075987;28;20812;-61
2022/09/03 11:20:59;;;;;;;3.27;1.27;;;23.90;37.50;;;;;;5074406;28;20471;-60
2022/09/03 11:23:29;;;;;;;2.73;1.43;;;24.00;37.70;;;;;;5092175;28;20447;-60
2022/09/03 11:26:01;;;;;;;4.13;1.50;;;24.10;37.50;;;;;;5093954;28;20498;-60
2022/09/03 11:28:39;;;;;;;2.30;1.63;;;24.20;37.50;;;;;;5093832;28;20946;-61
2022/09/03 11:31:20;;;;;;;2.83;1.43;;;24.20;37.10;;;;;;5093464;28;20841;-61
2022/09/03 11:33:52;;;;;;;3.00;2.10;;;24.30;37.30;;;;;;5073211;28;20979;-62
2022/09/03 11:36:30;;;;;;;2.57;1.70;;;24.40;37.20;;;;;;5073586;28;20881;-61
2022/09/03 11:38:59;;;;;;;3.50;1.50;;;24.30;36.80;;;;;;5073831;28;20519;-60
2022/09/03 11:41:27;;;;;;;3.73;1.50;;;24.20;36.80;;;;;;5073369;28;20471;-60
2022/09/03 11:43:55;;;;;;;3.77;1.63;;;24.20;36.80;;;;;;5073088;28;20495;-60
2022/09/03 11:46:31;;;;;;;6.80;1.50;;;24.20;36.70;;;;;;5073202;28;20521;-60
2022/09/03 11:49:12;;;;;;;1.60;1.50;;;24.20;36.70;;;;;;5073698;28;20437;-60
2022/09/03 11:51:42;;;;;;;3.13;1.27;;;24.30;36.80;;;;;;5072996;28;20840;-61
2022/09/03 11:54:25;;;;;;;3.57;1.50;;;24.30;36.80;;;;;;5072786;28;20941;-60
2022/09/03 11:57:10;;;;;;;3.67;1.77;;;24.30;36.60;;;;;;5072880;28;20997;-60
2022/09/03 11:59:38;;;;;;;2.90;1.83;;;24.30;36.60;;;;;;5072374;28;20543;-62
2022/09/03 12:02:16;;;;;;;4.57;1.60;;;24.40;36.70;;;;;;5077773;28;20940;-61
2022/09/03 12:04:51;;;;;;;2.03;1.30;;;24.50;36.60;;;;;;5090481;28;20446;-60
2022/09/03 12:07:44;;;;;;;5.90;1.30;;;24.50;36.20;;;;;;5075436;28;20453;-61
2022/09/03 12:10:32;;;;;;;1.67;1.40;;;24.50;36.20;;;;;;5074374;28;20460;-60
2022/09/03 12:13:10;;;;;;;3.00;1.50;;;24.50;36.30;;;;;;5085005;28;20439;-60
2022/09/03 12:16:15;;;;;;;4.37;1.60;;;24.40;36.30;;;;;;5093668;28;20432;-60
2022/09/03 12:18:44;;;;;;;3.17;1.40;;;24.50;36.40;;;;;;5094341;28;20504;-60
2022/09/03 12:21:13;;;;;;;2.43;1.60;;;24.70;36.20;;;;;;5092917;28;20558;-62
2022/09/03 12:23:43;;;;;;;2.60;1.80;;;24.90;36.10;;;;;;5074126;28;20846;-61
2022/09/03 12:26:14;;;;;;;2.20;1.40;;;24.80;35.50;;;;;;5085388;28;20439;-61
2022/09/03 12:28:43;;;;;;;1.30;1.20;;;24.70;35.30;;;;;;5090727;28;20448;-61
2022/09/03 12:31:20;;;;;;;3.00;1.53;;;24.70;35.50;;;;;;5077477;28;20508;-63
2022/09/03 12:33:54;;;;;;;5.30;1.60;;;24.70;35.60;;;;;;5096087;28;20448;-60
2022/09/03 12:36:22;;;;;;;2.63;2.00;;;24.90;35.40;;;;;;5078088;28;20455;-61
2022/09/03 12:38:50;;;;;;;1.77;1.40;;;24.80;35.30;;;;;;5077537;28;20878;-62
2022/09/03 12:41:26;;;;;;;3.30;1.63;;;24.80;35.00;;;;;;5077668;28;20784;-60
2022/09/03 12:43:56;;;;;;;1.90;1.37;;;24.80;35.00;;;;;;5095882;28;20798;-61
2022/09/03 12:46:25;;;;;;;2.33;1.80;;;24.80;35.00;;;;;;5095669;28;20545;-61
2022/09/03 12:49:02;;;;;;;2.50;1.60;;;24.80;35.00;;;;;;5097510;28;20449;-60
2022/09/03 12:51:33;;;;;;;1.50;1.40;;;24.80;34.80;;;;;;5096734;28;20566;-62
2022/09/03 12:54:02;;;;;;;2.60;1.30;;;24.80;34.70;;;;;;5096842;28;20529;-61
2022/09/03 12:56:31;;;;;;;1.57;1.27;;;24.80;34.80;;;;;;5093902;28;20506;-61
2022/09/03 12:59:04;;;;;;;2.13;1.43;;;24.80;34.70;;;;;;5076566;28;20937;-61
2022/09/03 13:01:35;;;;;;;1.40;1.20;;;24.90;34.80;;;;;;5089399;28;20467;-61
2022/09/03 13:04:10;;;;;;;1.83;1.40;;;25.00;34.90;;;;;;5095647;28;20872;-62
2022/09/03 13:06:48;;;;;;;4.07;1.80;;;25.10;34.70;;;;;;5080923;28;20539;-62
2022/09/03 13:09:19;;;;;;;3.10;1.60;;;25.20;34.60;;;;;;5079915;28;20602;-61
2022/09/03 13:11:46;;;;;;;2.67;1.40;;;25.20;34.40;;;;;;5090425;28;20472;-61
2022/09/03 13:14:16;;;;;;;3.23;1.53;;;25.10;34.20;;;;;;5099824;28;20548;-61
2022/09/03 13:17:16;;;;;;;2.53;1.43;;;25.10;34.30;;;;;;5080507;28;20795;-60
2022/09/03 13:20:06;;;;;;;3.97;1.50;;;25.10;34.40;;;;;;5083218;28;20519;-62